This is the latest recevied weather packets stored in our database for station/object KB1JLI. If no packets are shown the sender has not sent any weather packets the latest 1 day(s).
| Time | Temp. | Humidity | Pressure | Rain* | Wind** | Luminosity | Snow |
|---|---|---|---|---|---|---|---|
| 1778032304 | 19.44° C | 59% | 1010 hPa | 0 mm | - | 0 W/m² | - |
| 1778032002 | 19.44° C | 59% | 1009.7 hPa | 0 mm | - | 0 W/m² | - |
| 1778031395 | 19.44° C | 59% | 1009.3 hPa | 0 mm | - | 0 W/m² | - |
| 1778031092 | 19.44° C | 59% | 1009.2 hPa | 0 mm | - | 0 W/m² | - |
| 1778030788 | 19.44° C | 58% | 1009.1 hPa | 0 mm | - | 0 W/m² | - |
| 1778030484 | 19.44° C | 58% | 1009.2 hPa | 0 mm | - | 0 W/m² | - |
| 1778030182 | 19.44° C | 58% | 1009.2 hPa | 0 mm | - | 0 W/m² | - |
| 1778029877 | 19.44° C | 58% | 1009.1 hPa | 0 mm | - | 0 W/m² | - |
| 1778029572 | 20° C | 58% | 1008.9 hPa | 0 mm | - | 0 W/m² | - |
| 1778029268 | 20° C | 57% | 1008.8 hPa | 0 mm | - | 0 W/m² | - |
| 1778028661 | 20° C | 57% | 1008.7 hPa | 0 mm | - | 0 W/m² | - |
| 1778028055 | 20° C | 56% | 1008.5 hPa | 0 mm | - | 0 W/m² | - |
| 1778027448 | 20.56° C | 55% | 1008.4 hPa | 0 mm | - | 0 W/m² | - |
| 1778027144 | 20.56° C | 55% | 1008.1 hPa | 0 mm | - | 0 W/m² | - |
| 1778026840 | 20.56° C | 54% | 1008.2 hPa | 0 mm | - | 0 W/m² | - |
| 1778026234 | 21.11° C | 54% | 1007.8 hPa | 0 mm | - | 0 W/m² | - |
| 1778022299 | 22.78° C | 50% | 1006.8 hPa | 0 mm | - | 27 W/m² | - |
| 1778019266 | 23.89° C | 47% | 1005.8 hPa | 0 mm | - | 68 W/m² | - |
| 1778018357 | 24.44° C | 46% | 1006 hPa | 0 mm | - | 61 W/m² | - |
| 1778017753 | 25° C | 45% | 1005.8 hPa | 0 mm | - | 75 W/m² | - |
| 1778016541 | 25.56° C | 43% | 1005.7 hPa | 0 mm | - | 65 W/m² | - |
| 1778015328 | 26.11° C | 42% | 1005.5 hPa | 0 mm | - | 80 W/m² | - |
* Rain latest hour (hover to see other rain measurements)
** Current wind speed in m/s (hover to see current wind gust speed)